sensor_id;sensor_type;location;lat;lon;timestamp;pressure;altitude;pressure_sealevel;temperature;humidity
60974;BME280;46846;51.528;5.076;2024-02-04T00:01:58;101882.63;;;7.47;99.11
60974;BME280;46846;51.528;5.076;2024-02-04T00:04:24;101885.22;;;7.61;99.08
60974;BME280;46846;51.528;5.076;2024-02-04T00:06:49;101884.38;;;7.51;98.58
60974;BME280;46846;51.528;5.076;2024-02-04T00:09:14;101891.44;;;7.52;98.83
60974;BME280;46846;51.528;5.076;2024-02-04T00:11:40;101879.06;;;7.55;98.87
60974;BME280;46846;51.528;5.076;2024-02-04T00:14:05;101878.19;;;7.54;98.79
60974;BME280;46846;51.528;5.076;2024-02-04T00:16:30;101882.66;;;7.46;99.04
60974;BME280;46846;51.528;5.076;2024-02-04T00:18:56;101882.63;;;7.50;99.20
60974;BME280;46846;51.528;5.076;2024-02-04T00:21:21;101883.53;;;7.46;99.31
60974;BME280;46846;51.528;5.076;2024-02-04T00:23:46;101884.41;;;7.44;99.13
60974;BME280;46846;51.528;5.076;2024-02-04T00:26:12;101887.97;;;7.46;98.99
60974;BME280;46846;51.528;5.076;2024-02-04T00:28:37;101885.25;;;7.53;98.92
60974;BME280;46846;51.528;5.076;2024-02-04T00:31:02;101882.63;;;7.47;98.97
60974;BME280;46846;51.528;5.076;2024-02-04T00:33:28;101885.34;;;7.41;99.26
60974;BME280;46846;51.528;5.076;2024-02-04T00:35:53;101889.72;;;7.44;99.27
60974;BME280;46846;51.528;5.076;2024-02-04T00:38:18;101886.19;;;7.43;99.22
60974;BME280;46846;51.528;5.076;2024-02-04T00:40:44;101885.28;;;7.49;99.05
60974;BME280;46846;51.528;5.076;2024-02-04T00:43:09;101886.16;;;7.46;99.21
60974;BME280;46846;51.528;5.076;2024-02-04T00:45:35;101888.81;;;7.45;99.23
60974;BME280;46846;51.528;5.076;2024-02-04T00:48:00;101890.56;;;7.47;99.20
60974;BME280;46846;51.528;5.076;2024-02-04T00:50:25;101895.00;;;7.45;99.34
60974;BME280;46846;51.528;5.076;2024-02-04T00:52:51;101886.16;;;7.45;99.31
60974;BME280;46846;51.528;5.076;2024-02-04T00:55:19;101894.13;;;7.48;98.88
60974;BME280;46846;51.528;5.076;2024-02-04T00:57:44;101895.00;;;7.47;99.31
60974;BME280;46846;51.528;5.076;2024-02-04T01:00:09;101897.66;;;7.45;99.23
60974;BME280;46846;51.528;5.076;2024-02-04T01:02:35;101897.66;;;7.45;99.25
60974;BME280;46846;51.528;5.076;2024-02-04T01:05:00;101880.88;;;7.46;99.23
60974;BME280;46846;51.528;5.076;2024-02-04T01:07:26;101885.28;;;7.50;99.10
60974;BME280;46846;51.528;5.076;2024-02-04T01:09:51;101875.53;;;7.56;99.13
60974;BME280;46846;51.528;5.076;2024-02-04T01:12:16;101864.97;;;7.48;98.98
60974;BME280;46846;51.528;5.076;2024-02-04T01:14:42;101866.75;;;7.47;98.89
60974;BME280;46846;51.528;5.076;2024-02-04T01:17:08;101863.16;;;7.61;99.03
60974;BME280;46846;51.528;5.076;2024-02-04T01:19:33;101857.91;;;7.51;98.73
60974;BME280;46846;51.528;5.076;2024-02-04T01:21:58;101855.25;;;7.51;98.63
60974;BME280;46846;51.528;5.076;2024-02-04T01:24:24;101852.63;;;7.47;99.08
60974;BME280;46846;51.528;5.076;2024-02-04T01:26:50;101855.25;;;7.53;99.03
60974;BME280;46846;51.528;5.076;2024-02-04T01:29:15;101849.97;;;7.48;99.26
60974;BME280;46846;51.528;5.076;2024-02-04T01:31:41;101861.41;;;7.57;99.23
60974;BME280;46846;51.528;5.076;2024-02-04T01:34:06;101851.66;;;7.62;98.75
60974;BME280;46846;51.528;5.076;2024-02-04T01:36:32;101866.69;;;7.60;98.68
60974;BME280;46846;51.528;5.076;2024-02-04T01:38:57;101872.00;;;7.55;98.72
60974;BME280;46846;51.528;5.076;2024-02-04T01:41:22;101870.22;;;7.59;98.81
60974;BME280;46846;51.528;5.076;2024-02-04T01:43:50;101874.63;;;7.61;98.54
60974;BME280;46846;51.528;5.076;2024-02-04T01:46:16;101871.97;;;7.60;98.35
60974;BME280;46846;51.528;5.076;2024-02-04T01:48:42;101876.41;;;7.56;98.59
60974;BME280;46846;51.528;5.076;2024-02-04T01:51:08;101867.56;;;7.62;98.65
60974;BME280;46846;51.528;5.076;2024-02-04T01:53:34;101867.59;;;7.60;98.46
60974;BME280;46846;51.528;5.076;2024-02-04T01:56:01;101863.16;;;7.64;98.56
60974;BME280;46846;51.528;5.076;2024-02-04T01:58:27;101858.75;;;7.60;98.34
60974;BME280;46846;51.528;5.076;2024-02-04T02:00:53;101867.56;;;7.62;98.51
60974;BME280;46846;51.528;5.076;2024-02-04T02:03:18;101873.75;;;7.61;98.29
60974;BME280;46846;51.528;5.076;2024-02-04T02:05:45;101870.19;;;7.62;98.47
60974;BME280;46846;51.528;5.076;2024-02-04T02:08:12;101870.22;;;7.59;98.16
60974;BME280;46846;51.528;5.076;2024-02-04T02:10:37;101864.09;;;7.50;98.44
60974;BME280;46846;51.528;5.076;2024-02-04T02:13:09;101869.34;;;7.58;98.70
60974;BME280;46846;51.528;5.076;2024-02-04T02:15:42;101863.16;;;7.59;98.58
60974;BME280;46846;51.528;5.076;2024-02-04T02:21:34;101862.31;;;7.54;98.85
60974;BME280;46846;51.528;5.076;2024-02-04T02:26:52;101867.59;;;7.52;98.76
60974;BME280;46846;51.528;5.076;2024-02-04T02:29:18;101879.06;;;7.55;98.86
60974;BME280;46846;51.528;5.076;2024-02-04T02:31:44;101874.66;;;7.57;98.56
60974;BME280;46846;51.528;5.076;2024-02-04T02:34:11;101875.50;;;7.62;98.41
60974;BME280;46846;51.528;5.076;2024-02-04T02:36:49;101870.22;;;7.56;98.63
60974;BME280;46846;51.528;5.076;2024-02-04T02:39:20;101868.47;;;7.56;98.50
60974;BME280;46846;51.528;5.076;2024-02-04T02:41:49;101859.59;;;7.65;98.65
60974;BME280;46846;51.528;5.076;2024-02-04T02:44:16;101868.41;;;7.67;98.11
60974;BME280;46846;51.528;5.076;2024-02-04T02:46:42;101872.88;;;7.57;98.45
60974;BME280;46846;51.528;5.076;2024-02-04T02:49:09;101870.19;;;7.62;98.50
60974;BME280;46846;51.528;5.076;2024-02-04T02:51:35;101853.47;;;7.52;98.51
60974;BME280;46846;51.528;5.076;2024-02-04T02:54:00;101856.16;;;7.49;98.62
60974;BME280;46846;51.528;5.076;2024-02-04T02:56:25;101868.50;;;7.53;98.68
60974;BME280;46846;51.528;5.076;2024-02-04T02:58:50;101865.81;;;7.55;98.29
60974;BME280;46846;51.528;5.076;2024-02-04T03:01:16;101865.78;;;7.59;98.28
60974;BME280;46846;51.528;5.076;2024-02-04T03:03:41;101859.63;;;7.56;98.29
60974;BME280;46846;51.528;5.076;2024-02-04T03:06:06;101863.19;;;7.50;98.73
60974;BME280;46846;51.528;5.076;2024-02-04T03:08:33;101861.41;;;7.55;98.49
60974;BME280;46846;51.528;5.076;2024-02-04T03:10:58;101852.59;;;7.58;98.05
60974;BME280;46846;51.528;5.076;2024-02-04T03:13:23;101859.63;;;7.59;98.28
60974;BME280;46846;51.528;5.076;2024-02-04T03:15:49;101870.25;;;7.54;98.18
60974;BME280;46846;51.528;5.076;2024-02-04T03:18:14;101872.06;;;7.44;98.44
60974;BME280;46846;51.528;5.076;2024-02-04T03:20:39;101865.84;;;7.50;98.57
60974;BME280;46846;51.528;5.076;2024-02-04T03:23:05;101870.28;;;7.48;98.59
60974;BME280;46846;51.528;5.076;2024-02-04T03:25:30;101870.28;;;7.48;98.61
60974;BME280;46846;51.528;5.076;2024-02-04T03:27:55;101860.56;;;7.48;98.66
60974;BME280;46846;51.528;5.076;2024-02-04T03:30:21;101851.78;;;7.42;98.86
60974;BME280;46846;51.528;5.076;2024-02-04T03:32:46;101846.44;;;7.48;98.59
60974;BME280;46846;51.528;5.076;2024-02-04T03:35:12;101848.22;;;7.44;98.53
60974;BME280;46846;51.528;5.076;2024-02-04T03:37:37;101848.19;;;7.50;98.49
60974;BME280;46846;51.528;5.076;2024-02-04T03:40:02;101850.84;;;7.47;98.22
60974;BME280;46846;51.528;5.076;2024-02-04T03:42:28;101843.81;;;7.43;98.51
60974;BME280;46846;51.528;5.076;2024-02-04T03:44:53;101849.97;;;7.48;98.51
60974;BME280;46846;51.528;5.076;2024-02-04T03:47:19;101840.28;;;7.44;98.37
60974;BME280;46846;51.528;5.076;2024-02-04T03:49:44;101841.19;;;7.42;98.65
60974;BME280;46846;51.528;5.076;2024-02-04T03:52:09;101857.09;;;7.38;98.70
60974;BME280;46846;51.528;5.076;2024-02-04T03:54:35;101845.59;;;7.44;98.76
60974;BME280;46846;51.528;5.076;2024-02-04T03:57:00;101839.38;;;7.51;98.57
60974;BME280;46846;51.528;5.076;2024-02-04T03:59:25;101845.59;;;7.44;98.36
60974;BME280;46846;51.528;5.076;2024-02-04T04:01:51;101844.66;;;7.50;98.45
60974;BME280;46846;51.528;5.076;2024-02-04T04:04:19;101849.97;;;7.48;98.52
60974;BME280;46846;51.528;5.076;2024-02-04T04:06:44;101854.38;;;7.46;98.53
60974;BME280;46846;51.528;5.076;2024-02-04T04:09:10;101855.25;;;7.51;98.03
60974;BME280;46846;51.528;5.076;2024-02-04T04:11:35;101850.81;;;7.53;98.04
60974;BME280;46846;51.528;5.076;2024-02-04T04:14:01;101852.59;;;7.48;98.07
60974;BME280;46846;51.528;5.076;2024-02-04T04:16:26;101846.44;;;7.48;98.60
60974;BME280;46846;51.528;5.076;2024-02-04T04:18:51;101845.56;;;7.50;98.50
60974;BME280;46846;51.528;5.076;2024-02-04T04:21:17;101846.47;;;7.42;98.27
60974;BME280;46846;51.528;5.076;2024-02-04T04:23:42;101838.50;;;7.46;98.26
60974;BME280;46846;51.528;5.076;2024-02-04T04:26:08;101822.59;;;7.45;98.34
60974;BME280;46846;51.528;5.076;2024-02-04T04:28:33;101832.38;;;7.39;98.72
60974;BME280;46846;51.528;5.076;2024-02-04T04:30:58;101829.69;;;7.44;98.37
60974;BME280;46846;51.528;5.076;2024-02-04T04:33:24;101822.63;;;7.49;98.38
60974;BME280;46846;51.528;5.076;2024-02-04T04:35:49;101803.22;;;7.44;98.42
60974;BME280;46846;51.528;5.076;2024-02-04T04:38:14;101794.38;;;7.45;98.41
60974;BME280;46846;51.528;5.076;2024-02-04T04:40:40;101790.88;;;7.43;98.41
60974;BME280;46846;51.528;5.076;2024-02-04T04:43:08;101774.97;;;7.40;98.47
60974;BME280;46846;51.528;5.076;2024-02-04T04:45:33;101775.00;;;7.38;98.96
60974;BME280;46846;51.528;5.076;2024-02-04T04:47:59;101777.66;;;7.35;98.95
60974;BME280;46846;51.528;5.076;2024-02-04T04:50:24;101775.84;;;7.44;98.91
60974;BME280;46846;51.528;5.076;2024-02-04T04:52:50;101782.94;;;7.38;98.69
60974;BME280;46846;51.528;5.076;2024-02-04T04:55:15;101800.56;;;7.44;98.53
60974;BME280;46846;51.528;5.076;2024-02-04T04:57:40;101785.59;;;7.37;98.58
60974;BME280;46846;51.528;5.076;2024-02-04T05:00:06;101799.75;;;7.30;98.83
60974;BME280;46846;51.528;5.076;2024-02-04T05:02:39;101799.69;;;7.39;98.86
60974;BME280;46846;51.528;5.076;2024-02-04T05:05:05;101783.81;;;7.39;98.56
60974;BME280;46846;51.528;5.076;2024-02-04T05:07:30;101788.25;;;7.38;98.72
60974;BME280;46846;51.528;5.076;2024-02-04T05:09:56;101800.59;;;7.41;98.65
60974;BME280;46846;51.528;5.076;2024-02-04T05:12:21;101797.94;;;7.36;98.84
60974;BME280;46846;51.528;5.076;2024-02-04T05:14:46;101806.81;;;7.32;98.90
60974;BME280;46846;51.528;5.076;2024-02-04T05:17:12;101799.78;;;7.25;99.35
60974;BME280;46846;51.528;5.076;2024-02-04T05:19:37;101795.34;;;7.29;99.07
60974;BME280;46846;51.528;5.076;2024-02-04T05:22:02;101790.91;;;7.31;99.08
60974;BME280;46846;51.528;5.076;2024-02-04T05:24:28;101801.47;;;7.37;99.15
60974;BME280;46846;51.528;5.076;2024-02-04T05:26:53;101786.50;;;7.37;98.89
60974;BME280;46846;51.528;5.076;2024-02-04T05:29:18;101789.97;;;7.43;98.96
60974;BME280;46846;51.528;5.076;2024-02-04T05:31:44;101793.47;;;7.46;98.84
60974;BME280;46846;51.528;5.076;2024-02-04T05:34:12;101812.09;;;7.32;99.09
60974;BME280;46846;51.528;5.076;2024-02-04T05:36:38;101797.06;;;7.39;98.95
60974;BME280;46846;51.528;5.076;2024-02-04T05:41:35;101789.03;;;7.48;98.88
60974;BME280;46846;51.528;5.076;2024-02-04T05:44:01;101795.28;;;7.39;98.42
60974;BME280;46846;51.528;5.076;2024-02-04T05:46:26;101785.59;;;7.38;98.75
60974;BME280;46846;51.528;5.076;2024-02-04T05:48:52;101790.00;;;7.36;98.97
60974;BME280;46846;51.528;5.076;2024-02-04T05:51:18;101797.97;;;7.35;99.03
60974;BME280;46846;51.528;5.076;2024-02-04T05:53:43;101778.53;;;7.33;98.87
60974;BME280;46846;51.528;5.076;2024-02-04T05:56:08;101781.19;;;7.33;98.90
60974;BME280;46846;51.528;5.076;2024-02-04T05:58:34;101775.03;;;7.31;98.99
60974;BME280;46846;51.528;5.076;2024-02-04T06:00:59;101768.00;;;7.30;99.13
60974;BME280;46846;51.528;5.076;2024-02-04T06:03:25;101768.84;;;7.35;99.01
60974;BME280;46846;51.528;5.076;2024-02-04T06:05:50;101773.25;;;7.36;98.87
60974;BME280;46846;51.528;5.076;2024-02-04T06:08:15;101779.47;;;7.30;99.19
60974;BME280;46846;51.528;5.076;2024-02-04T06:10:41;101773.25;;;7.36;98.94
60974;BME280;46846;51.528;5.076;2024-02-04T06:13:06;101775.03;;;7.32;99.06
60974;BME280;46846;51.528;5.076;2024-02-04T06:15:32;101775.91;;;7.33;99.19
60974;BME280;46846;51.528;5.076;2024-02-04T06:17:57;101763.56;;;7.33;99.15
60974;BME280;46846;51.528;5.076;2024-02-04T06:20:22;101754.75;;;7.28;99.27
60974;BME280;46846;51.528;5.076;2024-02-04T06:22:48;101761.78;;;7.35;99.09
60974;BME280;46846;51.528;5.076;2024-02-04T06:25:13;101760.00;;;7.33;99.19
60974;BME280;46846;51.528;5.076;2024-02-04T06:27:38;101766.13;;;7.44;98.96
60974;BME280;46846;51.528;5.076;2024-02-04T06:30:06;101759.94;;;7.47;98.71
60974;BME280;46846;51.528;5.076;2024-02-04T06:32:31;101763.53;;;7.39;98.81
60974;BME280;46846;51.528;5.076;2024-02-04T06:34:57;101762.66;;;7.36;98.74
60974;BME280;46846;51.528;5.076;2024-02-04T06:37:23;101753.00;;;7.29;99.04
60974;BME280;46846;51.528;5.076;2024-02-04T06:39:48;101760.00;;;7.34;98.96
60974;BME280;46846;51.528;5.076;2024-02-04T06:42:14;101753.81;;;7.37;99.10
60974;BME280;46846;51.528;5.076;2024-02-04T06:44:43;101756.44;;;7.42;98.57
60974;BME280;46846;51.528;5.076;2024-02-04T06:47:08;101745.91;;;7.34;98.84
60974;BME280;46846;51.528;5.076;2024-02-04T06:49:36;101744.13;;;7.37;98.86
60974;BME280;46846;51.528;5.076;2024-02-04T06:52:01;101750.25;;;7.43;98.77
60974;BME280;46846;51.528;5.076;2024-02-04T06:54:26;101753.81;;;7.37;98.65
60974;BME280;46846;51.528;5.076;2024-02-04T06:56:52;101760.00;;;7.34;99.03
60974;BME280;46846;51.528;5.076;2024-02-04T06:59:20;101755.63;;;7.35;98.94
60974;BME280;46846;51.528;5.076;2024-02-04T07:01:45;101759.09;;;7.43;98.64
60974;BME280;46846;51.528;5.076;2024-02-04T07:04:11;101762.63;;;7.39;98.65
60974;BME280;46846;51.528;5.076;2024-02-04T07:06:36;101760.00;;;7.36;99.07
60974;BME280;46846;51.528;5.076;2024-02-04T07:09:01;101759.16;;;7.32;98.77
60974;BME280;46846;51.528;5.076;2024-02-04T07:11:27;101765.38;;;7.27;99.26
60974;BME280;46846;51.528;5.076;2024-02-04T07:13:52;101757.41;;;7.30;99.09
60974;BME280;46846;51.528;5.076;2024-02-04T07:16:24;101754.75;;;7.30;99.44
60974;BME280;46846;51.528;5.076;2024-02-04T07:18:49;101766.22;;;7.30;99.32
60974;BME280;46846;51.528;5.076;2024-02-04T07:21:15;101759.16;;;7.31;99.00
60974;BME280;46846;51.528;5.076;2024-02-04T07:23:40;101748.59;;;7.28;99.21
60974;BME280;46846;51.528;5.076;2024-02-04T07:26:05;101753.03;;;7.21;99.55
60974;BME280;46846;51.528;5.076;2024-02-04T07:28:31;101746.88;;;7.17;99.61
60974;BME280;46846;51.528;5.076;2024-02-04T07:30:56;101751.28;;;7.23;99.74
60974;BME280;46846;51.528;5.076;2024-02-04T07:33:21;101745.09;;;7.22;99.80
60974;BME280;46846;51.528;5.076;2024-02-04T07:35:47;101748.56;;;7.29;99.52
60974;BME280;46846;51.528;5.076;2024-02-04T07:38:12;101745.91;;;7.29;99.21
60974;BME280;46846;51.528;5.076;2024-02-04T07:40:37;101753.81;;;7.37;99.55
60974;BME280;46846;51.528;5.076;2024-02-04T07:43:03;101737.97;;;7.31;99.04
60974;BME280;46846;51.528;5.076;2024-02-04T07:45:28;101745.06;;;7.29;99.27
60974;BME280;46846;51.528;5.076;2024-02-04T07:47:53;101751.25;;;7.26;99.51
60974;BME280;46846;51.528;5.076;2024-02-04T07:50:19;101751.25;;;7.26;99.38
60974;BME280;46846;51.528;5.076;2024-02-04T07:52:45;101760.03;;;7.30;99.58
60974;BME280;46846;51.528;5.076;2024-02-04T07:55:10;101749.50;;;7.23;99.27
60974;BME280;46846;51.528;5.076;2024-02-04T07:57:36;101760.03;;;7.30;99.62
60974;BME280;46846;51.528;5.076;2024-02-04T08:00:01;101746.84;;;7.25;99.56
60974;BME280;46846;51.528;5.076;2024-02-04T08:02:30;101736.25;;;7.25;99.44
60974;BME280;46846;51.528;5.076;2024-02-04T08:04:56;101736.25;;;7.22;99.60
60974;BME280;46846;51.528;5.076;2024-02-04T08:07:21;101731.81;;;7.27;99.56
60974;BME280;46846;51.528;5.076;2024-02-04T08:09:46;101739.75;;;7.29;99.65
60974;BME280;46846;51.528;5.076;2024-02-04T08:12:12;101738.00;;;7.28;99.43
60974;BME280;46846;51.528;5.076;2024-02-04T08:14:37;101730.09;;;7.23;99.35
60974;BME280;46846;51.528;5.076;2024-02-04T08:17:02;101712.44;;;7.22;99.77
60974;BME280;46846;51.528;5.076;2024-02-04T08:19:28;101726.59;;;7.19;99.71
60974;BME280;46846;51.528;5.076;2024-02-04T08:21:53;101728.31;;;7.27;99.61
60974;BME280;46846;51.528;5.076;2024-02-04T08:24:18;101736.22;;;7.30;99.40
60974;BME280;46846;51.528;5.076;2024-02-04T08:26:45;101728.28;;;7.31;99.62
60974;BME280;46846;51.528;5.076;2024-02-04T08:29:11;101733.56;;;7.28;99.60
60974;BME280;46846;51.528;5.076;2024-02-04T08:31:36;101737.97;;;7.31;99.70
60974;BME280;46846;51.528;5.076;2024-02-04T08:34:01;101731.75;;;7.36;99.48
60974;BME280;46846;51.528;5.076;2024-02-04T08:36:28;101755.66;;;7.27;99.53
60974;BME280;46846;51.528;5.076;2024-02-04T08:38:54;101747.69;;;7.30;99.80
60974;BME280;46846;51.528;5.076;2024-02-04T08:41:19;101750.34;;;7.25;99.66
60974;BME280;46846;51.528;5.076;2024-02-04T08:43:44;101759.19;;;7.28;99.38
60974;BME280;46846;51.528;5.076;2024-02-04T08:46:10;101767.06;;;7.35;99.62
60974;BME280;46846;51.528;5.076;2024-02-04T08:48:35;101767.09;;;7.29;99.50
60974;BME280;46846;51.528;5.076;2024-02-04T08:51:01;101766.19;;;7.35;99.27
60974;BME280;46846;51.528;5.076;2024-02-04T08:53:27;101762.63;;;7.41;99.36
60974;BME280;46846;51.528;5.076;2024-02-04T08:55:52;101768.78;;;7.44;99.18
60974;BME280;46846;51.528;5.076;2024-02-04T08:58:18;101761.72;;;7.42;99.25
60974;BME280;46846;51.528;5.076;2024-02-04T09:00:43;101768.81;;;7.41;99.21
60974;BME280;46846;51.528;5.076;2024-02-04T09:03:08;101768.84;;;7.32;99.23
60974;BME280;46846;51.528;5.076;2024-02-04T09:05:34;101765.34;;;7.31;99.33
60974;BME280;46846;51.528;5.076;2024-02-04T09:07:59;101756.50;;;7.32;99.36
60974;BME280;46846;51.528;5.076;2024-02-04T09:10:24;101767.03;;;7.40;99.31
60974;BME280;46846;51.528;5.076;2024-02-04T09:12:50;101763.56;;;7.32;99.28
60974;BME280;46846;51.528;5.076;2024-02-04T09:15:15;101770.59;;;7.37;99.45
60974;BME280;46846;51.528;5.076;2024-02-04T09:17:40;101761.78;;;7.37;99.36
60974;BME280;46846;51.528;5.076;2024-02-04T09:20:07;101758.19;;;7.44;99.27
60974;BME280;46846;51.528;5.076;2024-02-04T09:22:33;101753.78;;;7.43;98.98
60974;BME280;46846;51.528;5.076;2024-02-04T09:24:58;101753.75;;;7.46;99.28
60974;BME280;46846;51.528;5.076;2024-02-04T09:27:23;101744.09;;;7.41;99.14
60974;BME280;46846;51.528;5.076;2024-02-04T09:29:49;101742.34;;;7.41;99.16
60974;BME280;46846;51.528;5.076;2024-02-04T09:32:14;101741.41;;;7.44;99.22
60974;BME280;46846;51.528;5.076;2024-02-04T09:34:39;101744.13;;;7.34;99.26
60974;BME280;46846;51.528;5.076;2024-02-04T09:37:05;101744.94;;;7.44;99.27
60974;BME280;46846;51.528;5.076;2024-02-04T09:39:32;101733.47;;;7.44;99.21
60974;BME280;46846;51.528;5.076;2024-02-04T09:41:57;101732.59;;;7.43;99.21
60974;BME280;46846;51.528;5.076;2024-02-04T09:44:23;101730.88;;;7.36;99.47
60974;BME280;46846;51.528;5.076;2024-02-04T09:46:48;101735.28;;;7.38;99.33
60974;BME280;46846;51.528;5.076;2024-02-04T09:49:14;101737.91;;;7.43;99.39
60974;BME280;46846;51.528;5.076;2024-02-04T09:51:40;101740.56;;;7.43;99.24
60974;BME280;46846;51.528;5.076;2024-02-04T09:54:09;101729.06;;;7.43;99.07
60974;BME280;46846;51.528;5.076;2024-02-04T09:56:37;101741.41;;;7.44;99.24
60974;BME280;46846;51.528;5.076;2024-02-04T09:59:04;101741.38;;;7.51;99.10
60974;BME280;46846;51.528;5.076;2024-02-04T10:01:31;101742.28;;;7.47;99.15
60974;BME280;46846;51.528;5.076;2024-02-04T10:03:57;101750.28;;;7.41;99.29
60974;BME280;46846;51.528;5.076;2024-02-04T10:06:23;101754.69;;;7.41;99.23
60974;BME280;46846;51.528;5.076;2024-02-04T10:08:49;101746.66;;;7.50;98.97
60974;BME280;46846;51.528;5.076;2024-02-04T10:11:14;101753.75;;;7.46;99.00
60974;BME280;46846;51.528;5.076;2024-02-04T10:13:46;101752.91;;;7.44;99.18
60974;BME280;46846;51.528;5.076;2024-02-04T10:16:13;101742.22;;;7.53;99.29
60974;BME280;46846;51.528;5.076;2024-02-04T10:18:45;101739.59;;;7.52;98.89
60974;BME280;46846;51.528;5.076;2024-02-04T10:21:17;101737.88;;;7.49;99.18
60974;BME280;46846;51.528;5.076;2024-02-04T10:23:43;101736.06;;;7.51;99.05
60974;BME280;46846;51.528;5.076;2024-02-04T10:26:09;101722.84;;;7.53;99.07
60974;BME280;46846;51.528;5.076;2024-02-04T10:28:34;101746.75;;;7.42;99.27
60974;BME280;46846;51.528;5.076;2024-02-04T10:30:59;101736.03;;;7.55;99.24
60974;BME280;46846;51.528;5.076;2024-02-04T10:33:25;101729.97;;;7.40;99.26
60974;BME280;46846;51.528;5.076;2024-02-04T10:35:50;101736.13;;;7.45;99.60
60974;BME280;46846;51.528;5.076;2024-02-04T10:38:15;101745.81;;;7.46;99.29
60974;BME280;46846;51.528;5.076;2024-02-04T10:40:41;101746.72;;;7.45;99.43
60974;BME280;46846;51.528;5.076;2024-02-04T10:43:07;101745.00;;;7.41;99.56
60974;BME280;46846;51.528;5.076;2024-02-04T10:45:35;101746.75;;;7.42;99.65
60974;BME280;46846;51.528;5.076;2024-02-04T10:48:04;101750.19;;;7.53;99.55
60974;BME280;46846;51.528;5.076;2024-02-04T10:50:33;101741.38;;;7.48;99.53
60974;BME280;46846;51.528;5.076;2024-02-04T10:53:04;101741.41;;;7.47;99.56
60974;BME280;46846;51.528;5.076;2024-02-04T10:55:30;101743.09;;;7.56;99.31
60974;BME280;46846;51.528;5.076;2024-02-04T10:57:56;101743.16;;;7.49;99.32
60974;BME280;46846;51.528;5.076;2024-02-04T11:00:22;101736.06;;;7.51;99.16
60974;BME280;46846;51.528;5.076;2024-02-04T11:02:49;101729.91;;;7.48;99.32
60974;BME280;46846;51.528;5.076;2024-02-04T11:05:16;101740.47;;;7.54;99.50
60974;BME280;46846;51.528;5.076;2024-02-04T11:07:42;101733.44;;;7.53;99.58
60974;BME280;46846;51.528;5.076;2024-02-04T11:10:10;101733.41;;;7.55;99.51
60974;BME280;46846;51.528;5.076;2024-02-04T11:12:36;101727.19;;;7.56;99.35
60974;BME280;46846;51.528;5.076;2024-02-04T11:15:05;101722.72;;;7.65;99.00
60974;BME280;46846;51.528;5.076;2024-02-04T11:20:28;101712.16;;;7.64;99.13
60974;BME280;46846;51.528;5.076;2024-02-04T11:26:00;101709.47;;;7.67;98.82
60974;BME280;46846;51.528;5.076;2024-02-04T11:28:26;101706.81;;;7.67;99.03
60974;BME280;46846;51.528;5.076;2024-02-04T11:30:52;101709.50;;;7.61;99.11
60974;BME280;46846;51.528;5.076;2024-02-04T11:33:18;101705.16;;;7.55;99.27
60974;BME280;46846;51.528;5.076;2024-02-04T11:35:44;101708.66;;;7.60;99.28
60974;BME280;46846;51.528;5.076;2024-02-04T11:38:10;101712.06;;;7.72;98.87
60974;BME280;46846;51.528;5.076;2024-02-04T11:40:39;101705.97;;;7.65;98.95
60974;BME280;46846;51.528;5.076;2024-02-04T11:43:09;101700.72;;;7.57;99.08
60974;BME280;46846;51.528;5.076;2024-02-04T11:45:42;101702.38;;;7.69;99.41
60974;BME280;46846;51.528;5.076;2024-02-04T11:48:09;101696.22;;;7.67;99.16
60974;BME280;46846;51.528;5.076;2024-02-04T11:50:36;101705.03;;;7.71;98.86
60974;BME280;46846;51.528;5.076;2024-02-04T11:53:05;101699.69;;;7.74;98.89
60974;BME280;46846;51.528;5.076;2024-02-04T11:55:30;101689.19;;;7.64;99.01
60974;BME280;46846;51.528;5.076;2024-02-04T11:57:56;101683.88;;;7.64;99.16
60974;BME280;46846;51.528;5.076;2024-02-04T12:00:22;101683.88;;;7.66;99.20
60974;BME280;46846;51.528;5.076;2024-02-04T12:02:47;101688.28;;;7.65;99.07
60974;BME280;46846;51.528;5.076;2024-02-04T12:05:13;101682.06;;;7.70;98.81
60974;BME280;46846;51.528;5.076;2024-02-04T12:07:39;101691.88;;;7.60;99.28
60974;BME280;46846;51.528;5.076;2024-02-04T12:10:06;101687.31;;;7.76;99.30
60974;BME280;46846;51.528;5.076;2024-02-04T12:12:31;101686.53;;;7.66;99.03
60974;BME280;46846;51.528;5.076;2024-02-04T12:14:57;101692.59;;;7.77;99.07
60974;BME280;46846;51.528;5.076;2024-02-04T12:17:23;101693.56;;;7.67;99.04
60974;BME280;46846;51.528;5.076;2024-02-04T12:19:49;101688.25;;;7.70;99.27
60974;BME280;46846;51.528;5.076;2024-02-04T12:22:15;101700.63;;;7.68;99.07
60974;BME280;46846;51.528;5.076;2024-02-04T12:24:40;101685.59;;;7.73;99.08
60974;BME280;46846;51.528;5.076;2024-02-04T12:27:06;101682.00;;;7.79;98.92
60974;BME280;46846;51.528;5.076;2024-02-04T12:29:32;101684.69;;;7.74;98.78
60974;BME280;46846;51.528;5.076;2024-02-04T12:31:58;101683.81;;;7.72;98.91
60974;BME280;46846;51.528;5.076;2024-02-04T12:34:24;101682.94;;;7.70;99.25
60974;BME280;46846;51.528;5.076;2024-02-04T12:37:00;101666.22;;;7.63;99.37
60974;BME280;46846;51.528;5.076;2024-02-04T12:39:25;101656.53;;;7.61;99.24
60974;BME280;46846;51.528;5.076;2024-02-04T12:41:51;101672.38;;;7.65;99.46
60974;BME280;46846;51.528;5.076;2024-02-04T12:44:18;101650.25;;;7.73;99.21
60974;BME280;46846;51.528;5.076;2024-02-04T12:46:43;101648.50;;;7.73;99.42
60974;BME280;46846;51.528;5.076;2024-02-04T12:49:09;101650.28;;;7.71;99.49
60974;BME280;46846;51.528;5.076;2024-02-04T12:51:34;101648.50;;;7.72;99.40
60974;BME280;46846;51.528;5.076;2024-02-04T12:54:08;101652.84;;;7.77;99.14
60974;BME280;46846;51.528;5.076;2024-02-04T12:56:47;101668.72;;;7.80;99.26
60974;BME280;46846;51.528;5.076;2024-02-04T12:59:27;101665.22;;;7.77;99.21
60974;BME280;46846;51.528;5.076;2024-02-04T13:02:04;101655.44;;;7.85;99.11
60974;BME280;46846;51.528;5.076;2024-02-04T13:04:37;101646.69;;;7.78;99.22
60974;BME280;46846;51.528;5.076;2024-02-04T13:07:10;101651.00;;;7.86;99.26
60974;BME280;46846;51.528;5.076;2024-02-04T13:09:37;101643.03;;;7.90;99.26